Time;durP1;ratioP1;P1;durP2;ratioP2;P2;SDS_P1;SDS_P2;PMS_P1;PMS_P2;Temp;Humidity;BMP_temperature;BMP_pressure;BME280_temperature;BME280_humidity;BME280_pressure;Samples;Min_cycle;Max_cycle;Signal;HPM_P1;HPM_P2
2022/11/14 00:00:45;;;;;;;10.60;1.02;;;22.10;70.10;;;;;;5048086;28;20018;-68
2022/11/14 00:03:12;;;;;;;15.52;1.15;;;22.10;70.10;;;;;;5049171;28;20020;-69
2022/11/14 00:05:41;;;;;;;10.70;0.90;;;22.10;70.10;;;;;;5048035;28;20028;-69
2022/11/14 00:08:20;;;;;;;1.52;0.68;;;22.10;70.20;;;;;;5047713;28;20060;-70
2022/11/14 00:10:49;;;;;;;2.65;0.43;;;22.10;70.10;;;;;;5045617;28;20512;-69
2022/11/14 00:13:16;;;;;;;1.10;0.55;;;22.10;70.10;;;;;;5045429;28;20380;-70
2022/11/14 00:15:43;;;;;;;2.65;0.70;;;22.10;70.20;;;;;;5045263;28;20029;-71
2022/11/14 00:18:10;;;;;;;5.28;1.27;;;22.00;70.00;;;;;;5042750;28;20041;-68
2022/11/14 00:20:36;;;;;;;1.23;0.40;;;22.00;70.80;;;;;;5046428;28;20025;-69
2022/11/14 00:23:03;;;;;;;3.78;1.00;;;22.00;70.20;;;;;;5044941;28;20383;-69
2022/11/14 00:25:30;;;;;;;2.17;0.57;;;22.10;70.30;;;;;;5047901;28;20122;-70
2022/11/14 00:27:58;;;;;;;3.42;1.42;;;22.00;70.30;;;;;;5048232;28;20384;-68
2022/11/14 00:30:25;;;;;;;2.15;0.98;;;22.00;70.30;;;;;;5077350;28;20103;-71
2022/11/14 00:32:51;;;;;;;1.75;0.90;;;22.00;70.20;;;;;;5048253;28;20108;-69
2022/11/14 00:35:17;;;;;;;6.32;1.55;;;22.00;70.10;;;;;;5047738;28;20017;-68
2022/11/14 00:37:44;;;;;;;2.67;1.00;;;21.90;70.00;;;;;;5047081;28;20033;-72
2022/11/14 00:40:11;;;;;;;4.43;1.05;;;22.00;70.00;;;;;;5047134;28;20147;-71
2022/11/14 00:42:37;;;;;;;3.38;1.02;;;21.90;69.90;;;;;;5047215;28;20536;-69
2022/11/14 00:45:04;;;;;;;1.27;0.80;;;22.00;70.00;;;;;;5080124;28;20063;-68
2022/11/14 00:47:31;;;;;;;1.77;0.60;;;22.00;69.90;;;;;;5047847;28;20517;-70
2022/11/14 00:49:57;;;;;;;3.15;1.65;;;21.90;69.90;;;;;;5048046;28;20044;-71
2022/11/14 00:52:23;;;;;;;6.22;1.50;;;21.90;69.90;;;;;;5047940;28;20017;-69
2022/11/14 00:54:50;;;;;;;3.40;1.00;;;21.90;69.80;;;;;;5051942;28;20020;-69
2022/11/14 00:57:17;;;;;;;1.77;1.00;;;21.90;69.80;;;;;;5049281;28;20025;-72
2022/11/14 00:59:43;;;;;;;5.47;1.55;;;21.90;69.70;;;;;;5052272;28;20025;-72
2022/11/14 01:02:10;;;;;;;2.78;0.70;;;21.90;69.70;;;;;;5050856;28;20025;-70
2022/11/14 01:04:36;;;;;;;2.05;0.40;;;21.90;69.60;;;;;;5054693;28;20318;-67
2022/11/14 01:07:03;;;;;;;2.30;0.43;;;21.90;69.50;;;;;;5049415;28;20518;-69
2022/11/14 01:09:29;;;;;;;1.33;0.50;;;21.90;69.30;;;;;;5049429;28;20021;-70
2022/11/14 01:11:56;;;;;;;5.32;1.13;;;21.80;69.10;;;;;;5049783;28;20021;-71
2022/11/14 01:14:22;;;;;;;1.23;0.70;;;21.80;68.90;;;;;;5049130;28;20025;-69
2022/11/14 01:16:49;;;;;;;1.85;0.50;;;21.80;68.80;;;;;;5049634;28;20049;-69
2022/11/14 01:19:15;;;;;;;4.00;0.77;;;21.80;68.60;;;;;;5048373;28;20455;-68
2022/11/14 01:21:42;;;;;;;0.50;0.50;;;21.80;68.40;;;;;;5051586;28;20036;-70
2022/11/14 01:24:08;;;;;;;8.80;1.70;;;21.70;68.10;;;;;;5051777;28;20029;-69
2022/11/14 01:26:35;;;;;;;5.82;1.02;;;21.80;68.10;;;;;;5051171;28;20480;-69
2022/11/14 01:29:01;;;;;;;0.52;0.52;;;21.80;68.60;;;;;;5048425;28;20380;-71
2022/11/14 01:31:28;;;;;;;2.63;0.50;;;21.70;67.70;;;;;;5050060;28;20017;-70
2022/11/14 01:33:54;;;;;;;3.42;1.00;;;21.80;67.60;;;;;;5051912;28;20478;-71
2022/11/14 01:36:21;;;;;;;2.80;0.70;;;21.80;67.50;;;;;;5050389;28;20029;-70
2022/11/14 01:38:52;;;;;;;2.75;1.33;;;21.70;67.00;;;;;;5051447;28;20112;-69
2022/11/14 01:41:19;;;;;;;1.20;0.57;;;21.70;66.70;;;;;;5050163;28;20112;-70
2022/11/14 01:43:45;;;;;;;5.53;0.90;;;21.70;66.40;;;;;;5050173;28;20553;-71
2022/11/14 01:46:18;;;;;;;1.40;0.88;;;21.70;66.40;;;;;;5050386;28;20029;-71
2022/11/14 01:48:50;;;;;;;15.98;1.52;;;21.70;66.00;;;;;;5046143;28;20110;-71
2022/11/14 01:51:34;;;;;;;2.15;0.43;;;21.70;66.90;;;;;;5048140;28;20190;-70
2022/11/14 01:54:15;;;;;;;2.78;0.82;;;21.70;67.00;;;;;;5046858;28;20370;-71
2022/11/14 01:56:48;;;;;;;1.67;0.40;;;21.60;66.50;;;;;;5048613;28;20677;-71
2022/11/14 01:59:23;;;;;;;1.80;1.45;;;21.60;66.00;;;;;;5049593;28;20109;-70
2022/11/14 02:01:52;;;;;;;2.47;0.57;;;21.60;65.80;;;;;;5049181;28;20020;-70
2022/11/14 02:04:29;;;;;;;2.42;0.55;;;21.50;65.70;;;;;;5051957;28;20082;-72
2022/11/14 02:07:00;;;;;;;2.05;0.57;;;21.60;66.30;;;;;;5049363;28;20061;-69
2022/11/14 02:09:30;;;;;;;3.55;0.60;;;21.50;65.70;;;;;;5050523;28;20029;-69
2022/11/14 02:11:59;;;;;;;1.23;0.40;;;21.50;65.60;;;;;;5048095;28;20028;-71
2022/11/14 02:14:27;;;;;;;3.70;0.77;;;21.50;65.50;;;;;;5048983;28;20442;-70
2022/11/14 02:16:54;;;;;;;3.22;0.90;;;21.50;65.50;;;;;;5047385;28;20090;-71
2022/11/14 02:19:20;;;;;;;1.55;0.52;;;21.50;65.50;;;;;;5048388;28;20028;-71
2022/11/14 02:21:47;;;;;;;1.63;0.70;;;21.50;65.50;;;;;;5079345;28;20037;-71
2022/11/14 02:24:13;;;;;;;2.55;0.55;;;21.50;65.40;;;;;;5048788;28;20523;-69
2022/11/14 02:26:41;;;;;;;1.42;0.30;;;21.40;65.40;;;;;;5049681;28;20112;-70
2022/11/14 02:29:10;;;;;;;1.30;0.88;;;21.40;65.40;;;;;;5048904;28;20028;-70
2022/11/14 02:31:37;;;;;;;2.08;0.77;;;21.40;65.30;;;;;;5042017;28;20047;-71
2022/11/14 02:34:03;;;;;;;1.65;0.90;;;21.40;65.30;;;;;;5050366;28;20025;-67
2022/11/14 02:36:30;;;;;;;2.95;1.15;;;21.40;65.20;;;;;;5049493;28;20404;-67
2022/11/14 02:38:56;;;;;;;1.90;0.70;;;21.40;65.10;;;;;;5050780;28;20359;-67
2022/11/14 02:41:22;;;;;;;1.85;0.77;;;21.30;65.20;;;;;;5047162;28;20514;-66
2022/11/14 02:43:49;;;;;;;1.67;0.88;;;21.30;65.10;;;;;;5049036;28;20029;-70
2022/11/14 02:46:15;;;;;;;1.00;0.70;;;21.30;65.10;;;;;;5049111;28;20029;-67
2022/11/14 02:48:42;;;;;;;1.55;1.40;;;21.30;65.10;;;;;;5049050;28;20024;-68
2022/11/14 02:51:08;;;;;;;3.47;1.25;;;21.20;65.10;;;;;;5050076;28;20104;-66
2022/11/14 02:53:35;;;;;;;2.05;0.70;;;21.30;65.20;;;;;;5048427;28;20032;-68
2022/11/14 02:56:01;;;;;;;2.28;0.85;;;21.20;65.10;;;;;;5047598;28;20415;-72
2022/11/14 02:58:28;;;;;;;2.78;0.85;;;21.20;65.10;;;;;;5045693;28;20056;-69
2022/11/14 03:00:54;;;;;;;4.57;0.80;;;21.20;65.10;;;;;;5044994;28;20094;-67
2022/11/14 03:03:21;;;;;;;5.43;1.23;;;21.20;65.10;;;;;;5048315;28;20025;-71
2022/11/14 03:05:47;;;;;;;2.78;0.90;;;21.20;65.00;;;;;;5049455;28;20056;-71
2022/11/14 03:08:14;;;;;;;4.78;1.10;;;21.20;65.00;;;;;;5049119;28;20029;-71
2022/11/14 03:10:40;;;;;;;1.55;0.70;;;21.20;65.00;;;;;;5046473;28;20063;-70
2022/11/14 03:13:07;;;;;;;2.22;1.20;;;21.20;65.10;;;;;;5049693;28;20021;-71
2022/11/14 03:15:36;;;;;;;1.98;0.80;;;21.10;64.90;;;;;;5046136;28;20048;-71
2022/11/14 03:18:03;;;;;;;5.32;1.15;;;21.10;65.00;;;;;;5045952;28;20110;-71
2022/11/14 03:20:29;;;;;;;5.07;1.10;;;21.10;65.00;;;;;;5048430;28;20009;-71
2022/11/14 03:22:56;;;;;;;1.20;0.95;;;21.10;65.10;;;;;;5048650;28;20025;-71
2022/11/14 03:25:23;;;;;;;1.50;1.20;;;21.10;65.10;;;;;;5046229;28;20037;-72
2022/11/14 03:27:49;;;;;;;1.13;0.77;;;21.10;65.10;;;;;;5040729;28;20565;-72
2022/11/14 03:30:16;;;;;;;5.57;1.58;;;21.00;65.10;;;;;;5046944;28;20017;-73
2022/11/14 03:32:43;;;;;;;7.10;2.40;;;21.00;65.10;;;;;;5046377;28;20029;-73
2022/11/14 03:35:10;;;;;;;2.88;1.63;;;21.00;65.10;;;;;;5048400;28;20040;-72
2022/11/14 03:37:36;;;;;;;1.55;1.10;;;21.00;65.10;;;;;;5047844;28;20128;-73
2022/11/14 03:40:04;;;;;;;3.15;1.88;;;21.00;65.10;;;;;;5047946;28;20025;-72
2022/11/14 03:42:34;;;;;;;4.28;1.40;;;21.00;65.20;;;;;;5046724;28;20028;-72
2022/11/14 03:45:01;;;;;;;2.30;1.25;;;21.00;65.20;;;;;;5041518;28;20115;-73
2022/11/14 03:47:28;;;;;;;3.30;1.48;;;21.00;65.20;;;;;;5063941;28;20171;-73
2022/11/14 03:49:54;;;;;;;3.45;1.67;;;20.90;65.10;;;;;;5046957;28;20029;-71
2022/11/14 03:52:21;;;;;;;2.50;0.93;;;21.00;65.20;;;;;;5046907;28;20352;-72
2022/11/14 03:54:49;;;;;;;6.78;1.27;;;20.90;65.20;;;;;;5046816;28;20017;-70
2022/11/14 03:57:15;;;;;;;2.35;1.90;;;20.90;65.30;;;;;;5045537;28;20013;-71
2022/11/14 03:59:42;;;;;;;2.97;1.42;;;20.90;65.30;;;;;;5047499;28;20029;-71
2022/11/14 04:02:08;;;;;;;2.22;0.90;;;20.90;65.30;;;;;;5047510;28;20133;-69
2022/11/14 04:04:35;;;;;;;3.40;1.50;;;20.90;65.20;;;;;;5048654;28;20051;-67
2022/11/14 04:07:01;;;;;;;19.83;5.50;;;20.90;65.20;;;;;;5047756;28;20021;-71
2022/11/14 04:09:28;;;;;;;10.30;5.53;;;20.90;65.30;;;;;;5047980;28;20024;-67
2022/11/14 04:11:54;;;;;;;4.47;2.53;;;20.90;66.00;;;;;;5048533;28;20025;-70
2022/11/14 04:14:21;;;;;;;6.05;2.47;;;20.90;66.40;;;;;;5047594;28;20059;-70
2022/11/14 04:16:47;;;;;;;3.70;2.08;;;20.80;66.50;;;;;;5046953;28;20068;-67
2022/11/14 04:19:14;;;;;;;2.60;1.30;;;20.90;66.30;;;;;;5048112;28;20507;-69
2022/11/14 04:21:40;;;;;;;3.75;2.03;;;20.90;66.00;;;;;;5046910;28;20021;-68
2022/11/14 04:24:07;;;;;;;11.55;5.13;;;20.90;66.10;;;;;;5045393;28;20044;-71
2022/11/14 04:26:33;;;;;;;11.65;7.53;;;20.90;66.50;;;;;;5047523;28;20120;-69
2022/11/14 04:29:00;;;;;;;5.05;3.75;;;20.90;66.40;;;;;;5048975;28;20087;-66
2022/11/14 04:31:27;;;;;;;4.05;2.47;;;20.90;66.20;;;;;;5052193;28;20111;-68
2022/11/14 04:33:53;;;;;;;3.03;1.58;;;20.90;66.10;;;;;;5049132;28;20411;-70
2022/11/14 04:36:20;;;;;;;50.17;35.42;;;21.00;66.10;;;;;;5080200;28;20399;-68
2022/11/14 04:38:46;;;;;;;35.33;26.55;;;21.00;66.20;;;;;;5048298;28;20025;-77
2022/11/14 04:41:13;;;;;;;24.40;20.45;;;20.90;66.50;;;;;;5046342;28;20053;-70
2022/11/14 04:43:39;;;;;;;22.67;12.88;;;20.90;66.80;;;;;;5045242;28;20056;-70
2022/11/14 04:46:06;;;;;;;13.00;7.55;;;20.90;66.80;;;;;;5042388;28;20043;-68
2022/11/14 04:48:32;;;;;;;7.28;4.95;;;21.00;66.80;;;;;;5042856;28;20024;-72
2022/11/14 04:50:59;;;;;;;6.32;2.67;;;21.00;66.80;;;;;;5079565;28;20376;-73
2022/11/14 04:53:25;;;;;;;5.95;2.67;;;21.00;66.70;;;;;;5045922;28;20116;-73
2022/11/14 04:55:55;;;;;;;3.38;1.52;;;20.90;66.50;;;;;;5044826;28;20025;-73
2022/11/14 04:58:22;;;;;;;0.93;0.88;;;21.00;66.40;;;;;;5040975;28;20025;-73
2022/11/14 05:00:48;;;;;;;1.83;1.10;;;21.00;66.20;;;;;;5046514;28;20043;-74
2022/11/14 05:03:15;;;;;;;4.63;1.67;;;21.00;66.10;;;;;;5045586;28;20021;-71
2022/11/14 05:05:44;;;;;;;1.63;0.90;;;21.00;66.00;;;;;;5045334;28;20068;-74
2022/11/14 05:08:14;;;;;;;8.88;2.13;;;21.00;66.00;;;;;;5042825;28;20021;-73
2022/11/14 05:10:45;;;;;;;8.93;1.35;;;21.00;66.00;;;;;;5041524;28;20072;-72
2022/11/14 05:13:12;;;;;;;5.88;1.45;;;21.00;66.80;;;;;;5043203;28;20061;-73
2022/11/14 05:15:38;;;;;;;2.13;1.33;;;21.00;66.50;;;;;;5041776;28;20514;-71
2022/11/14 05:18:05;;;;;;;1.58;1.20;;;21.00;66.70;;;;;;5049569;28;20049;-73
2022/11/14 05:20:31;;;;;;;4.18;1.02;;;21.00;66.80;;;;;;5049901;28;20507;-74
2022/11/14 05:22:58;;;;;;;9.88;1.15;;;21.00;66.80;;;;;;5050145;28;20109;-71
2022/11/14 05:25:25;;;;;;;4.68;1.25;;;21.10;66.80;;;;;;5048889;28;20021;-72
2022/11/14 05:27:51;;;;;;;10.18;2.38;;;21.10;66.80;;;;;;5048102;28;20040;-73
2022/11/14 05:30:18;;;;;;;4.20;1.20;;;21.10;67.00;;;;;;5050099;28;20021;-74
2022/11/14 05:32:44;;;;;;;4.68;1.88;;;21.20;67.00;;;;;;5048962;28;20479;-73
2022/11/14 05:35:11;;;;;;;2.60;0.82;;;21.20;67.00;;;;;;5050003;28;20108;-73
2022/11/14 05:37:37;;;;;;;6.68;1.20;;;21.20;66.90;;;;;;5051768;28;20357;-71
2022/11/14 05:40:05;;;;;;;3.47;1.00;;;21.20;66.60;;;;;;5050857;28;20021;-74
2022/11/14 05:42:32;;;;;;;3.15;1.20;;;21.20;66.50;;;;;;5049894;28;20017;-73
2022/11/14 05:44:58;;;;;;;3.78;1.13;;;21.30;66.40;;;;;;5051778;28;20084;-74
2022/11/14 05:48:04;;;;;;;5.18;1.20;;;21.30;66.20;;;;;;5048806;28;20487;-73
2022/11/14 05:51:16;;;;;;;3.38;1.23;;;21.40;66.10;;;;;;5045101;28;20086;-74
2022/11/14 05:54:22;;;;;;;4.97;1.23;;;21.40;65.90;;;;;;5045707;28;20132;-75
2022/11/14 05:57:28;;;;;;;1.15;1.00;;;21.50;65.90;;;;;;5042050;28;20468;-72
2022/11/14 06:00:34;;;;;;;1.77;1.10;;;21.50;65.80;;;;;;5044514;28;20387;-74
2022/11/14 06:03:41;;;;;;;2.50;0.95;;;21.50;65.50;;;;;;5050317;28;20415;-71
2022/11/14 06:06:47;;;;;;;2.92;1.10;;;21.60;65.30;;;;;;5049939;28;20021;-75
2022/11/14 06:09:13;;;;;;;2.90;1.05;;;21.60;65.10;;;;;;5037738;28;20028;-73
2022/11/14 06:11:40;;;;;;;4.07;1.38;;;21.70;65.20;;;;;;5050308;28;20028;-73
2022/11/14 06:14:46;;;;;;;5.78;1.17;;;21.80;65.10;;;;;;5047132;28;20017;-71
2022/11/14 06:17:52;;;;;;;5.63;1.05;;;21.80;65.10;;;;;;5044651;28;20106;-74
2022/11/14 06:20:38;;;;;;;;;;;21.90;64.80;;;;;;5050104;28;20025;-75
2022/11/14 06:23:04;;;;;;;2.33;0.98;;;21.90;64.60;;;;;;5079531;28;19909;-75
2022/11/14 06:25:31;;;;;;;3.40;1.48;;;22.00;64.30;;;;;;5045956;28;20043;-75
2022/11/14 06:27:58;;;;;;;2.90;1.00;;;22.00;64.00;;;;;;5050392;28;20029;-74
2022/11/14 06:30:25;;;;;;;2.05;1.10;;;22.00;63.70;;;;;;5048974;28;20067;-75
2022/11/14 06:32:57;;;;;;;1.45;1.08;;;22.10;63.70;;;;;;5048360;28;20025;-75
2022/11/14 06:35:25;;;;;;;2.38;1.10;;;22.10;64.20;;;;;;5049688;28;20025;-71
2022/11/14 06:37:52;;;;;;;6.40;1.13;;;22.10;63.40;;;;;;5049883;28;20514;-73
2022/11/14 06:40:18;;;;;;;1.95;1.20;;;22.10;63.20;;;;;;5042186;28;20080;-76
2022/11/14 06:42:45;;;;;;;1.40;1.00;;;22.20;63.20;;;;;;5044237;28;20104;-72
2022/11/14 06:45:11;;;;;;;14.90;1.40;;;22.20;63.10;;;;;;5048675;28;20078;-74
2022/11/14 06:47:38;;;;;;;3.22;1.88;;;22.30;63.00;;;;;;5048717;28;20511;-71
2022/11/14 06:50:05;;;;;;;29.88;2.95;;;22.40;63.20;;;;;;5044375;28;20538;-72
2022/11/14 06:52:31;;;;;;;4.28;1.38;;;22.40;63.30;;;;;;5048570;28;20029;-73
2022/11/14 06:54:58;;;;;;;9.45;2.55;;;22.50;63.60;;;;;;5047927;28;20023;-74
2022/11/14 06:57:24;;;;;;;2.40;1.20;;;22.50;63.30;;;;;;5047914;28;20017;-73
2022/11/14 06:59:52;;;;;;;13.45;2.10;;;22.60;62.70;;;;;;5044516;28;20067;-76
2022/11/14 07:02:18;;;;;;;21.42;3.30;;;22.60;62.00;;;;;;5041717;28;20034;-75
2022/11/14 07:04:45;;;;;;;10.30;1.88;;;22.60;62.20;;;;;;5044053;28;20021;-72
2022/11/14 07:07:11;;;;;;;10.75;1.00;;;22.70;62.60;;;;;;5045720;28;20123;-77
2022/11/14 07:09:38;;;;;;;2.53;1.30;;;22.80;61.30;;;;;;5043984;28;20060;-73
2022/11/14 07:12:07;;;;;;;2.92;1.38;;;22.90;60.70;;;;;;5039881;28;20407;-76
2022/11/14 07:14:34;;;;;;;7.55;1.27;;;22.90;59.90;;;;;;5041556;28;20032;-74
2022/11/14 07:17:00;;;;;;;2.65;1.10;;;22.90;59.30;;;;;;5044858;28;20061;-77
2022/11/14 07:19:27;;;;;;;7.50;2.08;;;22.90;59.20;;;;;;5043206;28;20057;-71
2022/11/14 07:21:53;;;;;;;1.20;0.88;;;23.00;58.80;;;;;;5040844;28;20020;-76
2022/11/14 07:24:20;;;;;;;3.33;1.88;;;23.00;58.50;;;;;;5043962;28;20072;-76
2022/11/14 07:26:46;;;;;;;5.20;1.52;;;23.10;58.20;;;;;;5045706;28;20221;-78
2022/11/14 07:29:13;;;;;;;2.72;1.58;;;23.10;58.40;;;;;;5047210;28;20472;-76
2022/11/14 07:31:40;;;;;;;1.45;1.23;;;23.20;58.40;;;;;;5041432;28;20018;-76
2022/11/14 07:34:08;;;;;;;4.57;1.30;;;23.20;58.30;;;;;;5044722;28;20033;-72
2022/11/14 07:36:34;;;;;;;3.42;1.63;;;23.30;58.10;;;;;;5046085;28;20032;-74
2022/11/14 07:39:01;;;;;;;2.55;1.00;;;23.30;57.70;;;;;;5045296;28;20070;-77
2022/11/14 07:41:27;;;;;;;3.70;1.30;;;23.40;57.40;;;;;;5046298;28;20029;-72
2022/11/14 07:43:54;;;;;;;4.85;1.70;;;23.40;57.20;;;;;;5047498;28;20031;-70
2022/11/14 07:46:21;;;;;;;2.22;1.17;;;23.50;56.80;;;;;;5048905;28;20140;-73
2022/11/14 07:48:47;;;;;;;5.68;1.30;;;23.60;56.80;;;;;;5048038;28;20025;-72
2022/11/14 07:51:18;;;;;;;7.22;1.40;;;23.60;56.60;;;;;;5047094;28;20530;-71
2022/11/14 07:53:45;;;;;;;3.20;1.67;;;23.70;56.40;;;;;;5047856;28;20047;-73
2022/11/14 07:56:12;;;;;;;3.05;1.50;;;23.80;56.20;;;;;;5047864;28;20029;-74
2022/11/14 07:58:40;;;;;;;5.20;0.90;;;23.80;56.00;;;;;;5048636;28;20480;-70
2022/11/14 08:01:09;;;;;;;14.73;1.40;;;23.90;55.60;;;;;;5048481;28;20021;-72
2022/11/14 08:03:35;;;;;;;3.25;1.38;;;23.90;55.20;;;;;;5045520;28;20029;-73
2022/11/14 08:06:03;;;;;;;4.32;1.23;;;24.00;55.20;;;;;;5046081;28;20468;-76
2022/11/14 08:08:30;;;;;;;10.90;2.30;;;24.10;54.90;;;;;;5046255;28;20104;-75
2022/11/14 08:10:58;;;;;;;3.33;1.20;;;24.10;55.30;;;;;;5047393;28;20043;-75
2022/11/14 08:13:25;;;;;;;3.03;1.60;;;24.20;54.20;;;;;;5048327;28;20036;-75
2022/11/14 08:15:52;;;;;;;4.32;1.30;;;24.30;54.20;;;;;;5044718;28;20013;-74
2022/11/14 08:18:19;;;;;;;8.93;1.58;;;24.30;53.40;;;;;;5047853;28;20045;-77
2022/11/14 08:20:45;;;;;;;9.77;2.10;;;24.30;53.60;;;;;;5047931;28;20095;-75
2022/11/14 08:23:12;;;;;;;7.85;1.25;;;24.40;53.20;;;;;;5045880;28;20107;-73
2022/11/14 08:25:40;;;;;;;3.55;1.73;;;24.50;53.20;;;;;;5049167;28;20831;-73
2022/11/14 08:28:07;;;;;;;4.15;1.90;;;24.60;52.80;;;;;;5045350;28;20515;-72
2022/11/14 08:30:35;;;;;;;2.90;1.35;;;24.70;52.50;;;;;;5048296;28;20025;-69
2022/11/14 08:33:03;;;;;;;7.32;1.63;;;24.70;52.20;;;;;;5046258;28;20029;-71
2022/11/14 08:35:29;;;;;;;4.07;1.27;;;24.80;52.00;;;;;;5047491;28;20074;-75
2022/11/14 08:37:56;;;;;;;7.57;1.90;;;24.90;51.80;;;;;;5048429;28;20545;-75
2022/11/14 08:40:23;;;;;;;4.07;0.90;;;25.00;51.90;;;;;;5047196;28;20109;-72
2022/11/14 08:42:49;;;;;;;4.18;1.38;;;25.00;51.70;;;;;;5045989;28;20037;-77
2022/11/14 08:45:16;;;;;;;2.75;0.85;;;25.10;51.30;;;;;;5046615;28;20058;-74
2022/11/14 08:47:42;;;;;;;5.72;1.90;;;25.20;51.10;;;;;;5047901;28;20083;-76
2022/11/14 08:50:09;;;;;;;5.57;1.58;;;25.30;51.20;;;;;;5047970;28;20387;-71
2022/11/14 08:52:35;;;;;;;10.75;1.50;;;25.30;51.10;;;;;;5045285;28;20025;-73
2022/11/14 08:55:02;;;;;;;6.68;1.15;;;25.40;51.10;;;;;;5048084;28;20021;-71
2022/11/14 08:57:28;;;;;;;8.07;2.15;;;25.50;51.10;;;;;;5046293;28;20045;-75
2022/11/14 08:59:55;;;;;;;5.25;1.60;;;25.50;50.80;;;;;;5048511;28;20032;-71
2022/11/14 09:02:21;;;;;;;3.05;1.15;;;25.60;50.80;;;;;;5046867;28;20078;-73
2022/11/14 09:04:48;;;;;;;12.50;4.45;;;25.70;50.60;;;;;;5048684;28;20480;-75
2022/11/14 09:07:15;;;;;;;1.60;0.88;;;25.70;50.20;;;;;;5046911;28;20028;-74
2022/11/14 09:09:41;;;;;;;6.65;2.03;;;25.80;50.10;;;;;;5048447;28;20033;-73
2022/11/14 09:12:08;;;;;;;1.25;0.82;;;25.90;49.90;;;;;;5047592;28;20036;-75
2022/11/14 09:14:34;;;;;;;3.53;2.35;;;25.90;49.30;;;;;;5048239;28;20021;-75
2022/11/14 09:17:01;;;;;;;8.85;1.88;;;26.00;49.90;;;;;;5049692;28;20122;-73
2022/11/14 09:19:27;;;;;;;2.72;1.35;;;26.00;50.00;;;;;;5050540;28;20032;-70
2022/11/14 09:21:54;;;;;;;2.80;1.60;;;26.10;49.90;;;;;;5051492;28;20502;-70
2022/11/14 09:24:20;;;;;;;1.90;0.98;;;26.10;49.90;;;;;;5050856;28;20067;-73
2022/11/14 09:26:49;;;;;;;5.43;1.10;;;26.10;50.00;;;;;;5052374;28;20048;-76
2022/11/14 09:29:17;;;;;;;2.55;1.30;;;26.10;49.90;;;;;;5050084;28;20025;-75
2022/11/14 09:31:44;;;;;;;6.28;1.13;;;26.10;49.70;;;;;;5051264;28;20383;-75
2022/11/14 09:34:10;;;;;;;4.85;1.65;;;26.10;49.60;;;;;;5049028;28;20036;-78
2022/11/14 09:36:37;;;;;;;9.00;2.17;;;26.10;49.80;;;;;;5049151;28;20017;-74
2022/11/14 09:39:03;;;;;;;3.78;1.73;;;26.10;50.00;;;;;;5050131;28;20096;-75
2022/11/14 09:41:55;;;;;;;5.05;1.83;;;26.20;49.90;;;;;;5064590;28;20564;-74
2022/11/14 09:44:30;;;;;;;5.00;1.70;;;26.30;49.70;;;;;;5066627;28;20025;-73
2022/11/14 09:47:20;;;;;;;3.30;1.42;;;26.30;49.50;;;;;;5050260;28;20033;-75
2022/11/14 09:49:50;;;;;;;4.82;1.73;;;26.40;49.10;;;;;;5049007;28;20483;-78
2022/11/14 09:52:35;;;;;;;4.88;1.90;;;26.40;48.40;;;;;;5051144;28;20530;-73
2022/11/14 09:55:15;;;;;;;2.92;1.90;;;26.50;48.10;;;;;;5045844;28;20036;-75
2022/11/14 09:57:43;;;;;;;4.80;1.67;;;26.50;47.90;;;;;;5049216;28;20051;-73
2022/11/14 10:00:21;;;;;;;3.38;1.25;;;26.60;47.60;;;;;;5047386;28;20111;-73
2022/11/14 10:03:17;;;;;;;8.13;2.03;;;26.60;47.40;;;;;;5047980;28;20033;-74
2022/11/14 10:06:03;;;;;;;5.35;1.60;;;26.70;47.00;;;;;;5050676;28;20433;-73
2022/11/14 10:08:53;;;;;;;6.47;1.60;;;26.80;47.00;;;;;;5050687;28;20036;-76
2022/11/14 10:11:52;;;;;;;3.92;1.73;;;26.80;46.80;;;;;;5049478;28;20017;-74
2022/11/14 10:14:32;;;;;;;6.78;1.80;;;26.90;46.80;;;;;;5041952;28;20037;-75
2022/11/14 10:17:36;;;;;;;3.92;1.58;;;27.00;46.50;;;;;;5046411;28;20048;-70
2022/11/14 10:20:28;;;;;;;2.13;1.38;;;27.10;46.30;;;;;;5046361;28;20025;-72
2022/11/14 10:23:27;;;;;;;5.97;1.40;;;27.10;45.60;;;;;;5049099;28;20025;-73
2022/11/14 10:26:08;;;;;;;6.13;0.93;;;27.20;45.20;;;;;;5047969;28;20111;-77
2022/11/14 10:28:56;;;;;;;4.85;0.85;;;27.30;45.40;;;;;;5050520;28;20029;-74
2022/11/14 10:31:29;;;;;;;6.00;0.95;;;27.30;45.10;;;;;;5049578;28;20029;-73
2022/11/14 10:34:25;;;;;;;2.15;1.02;;;27.30;44.80;;;;;;5043255;28;20027;-75
2022/11/14 10:36:54;;;;;;;;;;;27.40;45.00;;;;;;5050379;28;20025;-77
2022/11/14 10:39:38;;;;;;;4.15;1.00;;;27.40;44.60;;;;;;5064305;28;20272;-73
2022/11/14 10:42:13;;;;;;;2.17;0.70;;;27.40;44.60;;;;;;5048915;28;20032;-74
2022/11/14 10:44:52;;;;;;;7.18;1.02;;;27.40;44.80;;;;;;5049629;28;20036;-74
2022/11/14 10:47:22;;;;;;;6.88;1.75;;;27.50;44.90;;;;;;5047575;28;20037;-73
2022/11/14 10:49:54;;;;;;;2.25;2.05;;;27.50;44.90;;;;;;5045651;28;20535;-71
2022/11/14 10:52:31;;;;;;;6.00;0.95;;;27.50;45.00;;;;;;5050267;28;20494;-75
2022/11/14 10:55:06;;;;;;;2.25;0.90;;;27.60;45.10;;;;;;5044251;28;20045;-75
2022/11/14 10:57:32;;;;;;;2.45;1.33;;;27.60;45.30;;;;;;5048308;28;20488;-70
2022/11/14 10:59:59;;;;;;;2.60;1.10;;;27.60;45.20;;;;;;5049035;28;20100;-72
2022/11/14 11:02:25;;;;;;;4.82;1.40;;;27.60;45.20;;;;;;5048919;28;20487;-72
2022/11/14 11:04:52;;;;;;;3.75;0.88;;;27.60;45.30;;;;;;5046844;28;20036;-73
2022/11/14 11:13:11;;;;;;;5.25;1.48;;;27.60;45.10;;;;;;5047045;28;20044;-73
2022/11/14 11:15:42;;;;;;;1.02;0.70;;;27.60;45.30;;;;;;5043939;28;20013;-71
2022/11/14 11:18:25;;;;;;;3.38;0.90;;;27.60;45.30;;;;;;5049322;28;20060;-67
2022/11/14 11:21:13;;;;;;;3.78;1.23;;;27.60;45.30;;;;;;5048628;28;20032;-74
2022/11/14 11:24:37;;;;;;;0.80;0.73;;;27.60;45.40;;;;;;5048945;28;20063;-74
2022/11/14 11:27:21;;;;;;;3.20;1.20;;;27.70;44.70;;;;;;5044740;28;20044;-73
2022/11/14 11:30:17;;;;;;;36.75;2.72;;;27.80;44.40;;;;;;5037928;28;20017;-73
2022/11/14 11:32:43;;;;;;;2.72;0.73;;;28.00;44.60;;;;;;5041150;28;20037;-77
2022/11/14 11:35:14;;;;;;;3.85;1.08;;;28.10;45.00;;;;;;5045504;28;20511;-77
2022/11/14 11:38:01;;;;;;;5.35;1.30;;;28.10;45.50;;;;;;5043701;28;20033;-75
2022/11/14 11:41:07;;;;;;;5.55;2.40;;;28.20;44.90;;;;;;5043904;28;20030;-75
2022/11/14 11:43:50;;;;;;;0.82;0.63;;;28.30;44.60;;;;;;5041254;28;20112;-75
2022/11/14 11:46:29;;;;;;;9.52;2.00;;;28.40;44.20;;;;;;5036159;28;20459;-76
2022/11/14 11:49:37;;;;;;;2.78;0.80;;;28.40;43.50;;;;;;5043911;28;20078;-73
2022/11/14 11:52:18;;;;;;;5.43;1.60;;;28.50;42.60;;;;;;5071905;28;20063;-76
2022/11/14 11:55:16;;;;;;;5.68;0.80;;;28.60;42.10;;;;;;5036732;28;20020;-70
2022/11/14 11:57:50;;;;;;;1.75;0.60;;;28.60;42.30;;;;;;5036978;28;20028;-71
2022/11/14 12:00:22;;;;;;;6.65;0.90;;;28.70;42.50;;;;;;5038805;28;20013;-74
2022/11/14 12:02:51;;;;;;;0.50;0.50;;;28.80;42.10;;;;;;5035471;28;20112;-72
2022/11/14 12:05:35;;;;;;;8.68;2.03;;;28.80;42.00;;;;;;5035448;28;20515;-74
2022/11/14 12:08:23;;;;;;;2.92;0.85;;;28.90;42.00;;;;;;5038266;28;20045;-73
2022/11/14 12:10:51;;;;;;;3.67;0.70;;;28.90;42.30;;;;;;5038843;28;20058;-71
2022/11/14 12:13:49;;;;;;;1.92;0.88;;;28.90;41.90;;;;;;5041639;28;20037;-77
2022/11/14 12:16:52;;;;;;;1.25;0.60;;;28.90;41.40;;;;;;5034849;28;20140;-73
2022/11/14 12:19:37;;;;;;;15.27;3.33;;;28.90;41.10;;;;;;5035243;28;20025;-71
2022/11/14 12:22:34;;;;;;;3.92;1.73;;;28.90;41.40;;;;;;5076198;28;20021;-71
2022/11/14 12:25:19;;;;;;;6.15;1.02;;;28.90;41.60;;;;;;5055677;28;20065;-73
2022/11/14 12:28:16;;;;;;;8.48;3.03;;;28.80;42.10;;;;;;5044171;28;20041;-72
2022/11/14 12:31:15;;;;;;;2.42;0.80;;;28.80;42.60;;;;;;5037855;28;20029;-71
2022/11/14 12:34:25;;;;;;;2.47;0.80;;;28.80;43.00;;;;;;5069198;28;20025;-73
2022/11/14 12:36:57;;;;;;;3.78;0.88;;;28.70;42.60;;;;;;5036751;28;20388;-74
2022/11/14 12:39:29;;;;;;;2.13;1.27;;;28.70;41.70;;;;;;5038956;28;20065;-76
2022/11/14 12:42:05;;;;;;;2.13;0.80;;;28.70;41.80;;;;;;5037062;28;20040;-74
2022/11/14 12:44:38;;;;;;;0.98;0.60;;;28.70;41.80;;;;;;5044126;28;20108;-74
2022/11/14 12:47:04;;;;;;;2.50;0.52;;;28.70;41.70;;;;;;5041670;28;20549;-77
2022/11/14 12:49:46;;;;;;;3.72;1.10;;;28.70;41.60;;;;;;5040390;28;20078;-75
2022/11/14 12:52:44;;;;;;;2.92;0.77;;;28.70;41.50;;;;;;5043687;28;20033;-76
2022/11/14 12:55:25;;;;;;;6.43;1.00;;;28.70;41.70;;;;;;5046266;28;20025;-70
2022/11/14 12:58:13;;;;;;;2.85;1.00;;;28.60;41.80;;;;;;5038727;28;20013;-74
2022/11/14 13:00:45;;;;;;;5.45;1.38;;;28.60;42.20;;;;;;5041808;28;20025;-76
2022/11/14 13:03:38;;;;;;;3.08;1.15;;;28.50;41.70;;;;;;5043307;28;20080;-77
2022/11/14 13:06:41;;;;;;;1.63;0.50;;;28.50;42.00;;;;;;5025409;28;20071;-77
2022/11/14 13:09:46;;;;;;;3.38;0.60;;;28.40;42.30;;;;;;5044054;28;20369;-74
2022/11/14 13:22:09;;;;;;;7.28;2.05;;;28.20;43.10;;;;;;5045010;28;20043;-74
2022/11/14 13:24:57;;;;;;;10.20;2.60;;;28.30;42.90;;;;;;5032760;28;20115;-70
2022/11/14 13:28:03;;;;;;;1.35;0.63;;;28.30;42.50;;;;;;5044928;28;20590;-71